CMA CGM Tosca — FMEL — position and weather

sailwx.info

Track history (hours):
 
Tides and Currents Weather Stations Pressure Air Temp Water Temp Dewpoint Dewpoint Depression Visibility Wind Speed Wind Dir Waves Ship Positions

CMA CGM Tosca

Last reported at 2016-Sep-24 22:33 UTC. Time now 2016-Sep-25 12:18 UTC.
Position N 36°03' W 007°06'.

Length 334 m; draft 13.4 m.

Type: Cargo ship. MMSI: 228335900.

Date/timePositionNaut miles runAvg speedWind from/ knotsBaromVisibWave heightAir tempDewpointWater temp
2016-Sep-24 22:33N 36°03' W 007°06'1312.5
2016-Sep-24 21:33N 36°08' W 007°20'2512.6
2016-Sep-24 19:33N 36°14' W 007°50'3812.7
2016-Sep-24 16:32N 36°24' W 008°36'2512.6
2016-Sep-24 14:33N 36°30' W 009°06'2412.0
2016-Sep-24 12:33N 36°45' W 009°30'2912.6
2016-Sep-24 10:17N 37°13' W 009°39'1512.6
2016-Sep-24 09:05N 37°27' W 009°45'7112.9
2016-Sep-24 03:33N 38°37' W 010°05'1313.3
2016-Sep-24 02:33N 38°50' W 010°08'1312.6
2016-Sep-24 01:34N 39°02' W 010°06'1313.0
2016-Sep-24 00:34N 39°15' W 010°06'61112.5
2016-Sep-21 23:33N 48°56' W 005°40'1313.2
2016-Sep-21 22:32N 49°03' W 005°23'15611.6
2016-Sep-21 09:05N 50°11' W 001°46'810.8
2016-Sep-21 08:22N 50°13' W 001°34'6914.2
2016-Sep-21 03:32N 50°32' E 000°09'1313.0
2016-Sep-21 02:32N 50°35' E 000°29'74 8.3
2016-Sep-20 17:33N 51°41' E 001°26'3612.1
2016-Sep-20 14:33N 51°30' E 000°30'0 0.0
2016-Sep-20 13:33N 51°30' E 000°30'0 0.0
2016-Sep-20 10:33N 51°30' E 000°30'0 0.0
2016-Sep-20 08:34N 51°30' E 000°30'0 0.0
2016-Sep-20 07:34N 51°30' E 000°30'0 0.0
2016-Sep-20 06:34N 51°30' E 000°30'0 0.0
2016-Sep-20 02:34N 51°30' E 000°30'0 0.0
2016-Sep-19 23:34N 51°30' E 000°30'0 0.0
2016-Sep-19 19:34N 51°30' E 000°30'0 0.0
2016-Sep-19 18:34N 51°30' E 000°30'17 8.6
2016-Sep-19 16:33N 51°29' E 000°57'2914.6
2016-Sep-19 14:33N 51°48' E 001°33'8 8.2
2016-Sep-19 13:33N 51°51' E 001°45'8 7.8
2016-Sep-19 12:33N 51°44' E 001°49'8 8.2
2016-Sep-19 11:33N 51°36' E 001°50'14 7.0
2016-Sep-19 09:33N 51°24' E 002°03'16 8.0
2016-Sep-19 07:33N 51°22' E 002°28'1010.1
2016-Sep-19 06:33N 51°24' E 002°44'4213.9
2016-Sep-19 03:33N 51°21' E 003°51'8 7.9
2016-Sep-19 02:33N 51°22' E 004°03'8 4.0
2016-Sep-19 00:29N 51°21' E 004°16'0 0.0
2016-Sep-18 19:34N 51°21' E 004°16'0 0.0
2016-Sep-18 15:34N 51°21' E 004°16'0 0.0
2016-Sep-18 14:33N 51°21' E 004°16'0 0.0
2016-Sep-18 10:32N 51°21' E 004°16'0 0.0
2016-Sep-18 09:32N 51°21' E 004°16'0 0.0
2016-Sep-18 02:32N 51°21' E 004°16'0 0.0
2016-Sep-18 01:29N 51°21' E 004°16'0 0.0
2016-Sep-18 00:32N 51°21' E 004°16'0 0.0
2016-Sep-17 22:33N 51°21' E 004°16'0 0.0
2016-Sep-17 21:33N 51°21' E 004°16'0 0.0
2016-Sep-17 20:33N 51°21' E 004°16'0 0.0
2016-Sep-17 19:16N 51°21' E 004°16'0 0.0
2016-Sep-17 13:33N 51°21' E 004°16'0 0.0
2016-Sep-17 12:32N 51°21' E 004°16'0 0.0
2016-Sep-17 10:33N 51°21' E 004°16'1 1.3
2016-Sep-17 09:33N 51°21' E 004°15'1110.8
2016-Sep-17 08:34N 51°26' E 003°59'1110.5
2016-Sep-17 07:34N 51°23' E 003°43'2311.6
2016-Sep-17 05:33N 51°24' E 003°06'1111.5
2016-Sep-17 04:33N 51°35' E 003°10'14513.2
2016-Sep-16 17:33N 53°38' E 005°17'2713.8
2016-Sep-16 15:34N 53°46' E 006°01'4816.0
2016-Sep-16 12:33N 53°59' E 007°20'4314.2
2016-Sep-16 09:34N 53°58' E 008°32'2512.4
2016-Sep-16 07:34N 53°53' E 009°13'32 7.9
2016-Sep-16 03:33N 53°32' E 009°54'0 0.0
2016-Sep-16 02:33N 53°32' E 009°54'0 0.0
2016-Sep-16 00:33N 53°32' E 009°54'0 0.0
2016-Sep-15 22:33N 53°32' E 009°54'0 0.0
2016-Sep-15 21:33N 53°32' E 009°54'0 0.0
2016-Sep-15 20:33N 53°32' E 009°54'0 0.0
2016-Sep-15 18:33N 53°32' E 009°54'0 0.0
2016-Sep-15 12:33N 53°32' E 009°54'0 0.0
2016-Sep-15 11:30N 53°32' E 009°54'0 0.0
2016-Sep-15 04:33N 53°32' E 009°54'0 0.0
2016-Sep-15 03:33N 53°32' E 009°54'0 0.0
2016-Sep-15 01:33N 53°32' E 009°54'  
Track history (hours):
 
Tides and Currents Weather Stations Pressure Air Temp Water Temp Dewpoint Dewpoint Depression Visibility Wind Speed Wind Dir Waves Ship Positions

CMA CGM Tosca

Last reported at 2016-Sep-24 22:33 UTC. Time now 2016-Sep-25 12:18 UTC.
Position N 36°03' W 007°06'.

Length 334 m; draft 13.4 m.

Type: Cargo ship. MMSI: 228335900.

Date/timePositionNaut miles runAvg speedWind from/ knotsBaromVisibWave heightAir tempDewpointWater temp
2016-Sep-24 22:33N 36°03' W 007°06'1312.5
2016-Sep-24 21:33N 36°08' W 007°20'2512.6
2016-Sep-24 19:33N 36°14' W 007°50'3812.7
2016-Sep-24 16:32N 36°24' W 008°36'2512.6
2016-Sep-24 14:33N 36°30' W 009°06'2412.0
2016-Sep-24 12:33N 36°45' W 009°30'2912.6
2016-Sep-24 10:17N 37°13' W 009°39'1512.6
2016-Sep-24 09:05N 37°27' W 009°45'7112.9
2016-Sep-24 03:33N 38°37' W 010°05'1313.3
2016-Sep-24 02:33N 38°50' W 010°08'1312.6
2016-Sep-24 01:34N 39°02' W 010°06'1313.0
2016-Sep-24 00:34N 39°15' W 010°06'61112.5
2016-Sep-21 23:33N 48°56' W 005°40'1313.2
2016-Sep-21 22:32N 49°03' W 005°23'15611.6
2016-Sep-21 09:05N 50°11' W 001°46'810.8
2016-Sep-21 08:22N 50°13' W 001°34'6914.2
2016-Sep-21 03:32N 50°32' E 000°09'1313.0
2016-Sep-21 02:32N 50°35' E 000°29'74 8.3
2016-Sep-20 17:33N 51°41' E 001°26'3612.1
2016-Sep-20 14:33N 51°30' E 000°30'0 0.0
2016-Sep-20 13:33N 51°30' E 000°30'0 0.0
2016-Sep-20 10:33N 51°30' E 000°30'0 0.0
2016-Sep-20 08:34N 51°30' E 000°30'0 0.0
2016-Sep-20 07:34N 51°30' E 000°30'0 0.0
2016-Sep-20 06:34N 51°30' E 000°30'0 0.0
2016-Sep-20 02:34N 51°30' E 000°30'0 0.0
2016-Sep-19 23:34N 51°30' E 000°30'0 0.0
2016-Sep-19 19:34N 51°30' E 000°30'0 0.0
2016-Sep-19 18:34N 51°30' E 000°30'17 8.6
2016-Sep-19 16:33N 51°29' E 000°57'2914.6
2016-Sep-19 14:33N 51°48' E 001°33'8 8.2
2016-Sep-19 13:33N 51°51' E 001°45'8 7.8
2016-Sep-19 12:33N 51°44' E 001°49'8 8.2
2016-Sep-19 11:33N 51°36' E 001°50'14 7.0
2016-Sep-19 09:33N 51°24' E 002°03'16 8.0
2016-Sep-19 07:33N 51°22' E 002°28'1010.1
2016-Sep-19 06:33N 51°24' E 002°44'4213.9
2016-Sep-19 03:33N 51°21' E 003°51'8 7.9
2016-Sep-19 02:33N 51°22' E 004°03'8 4.0
2016-Sep-19 00:29N 51°21' E 004°16'0 0.0
2016-Sep-18 19:34N 51°21' E 004°16'0 0.0
2016-Sep-18 15:34N 51°21' E 004°16'0 0.0
2016-Sep-18 14:33N 51°21' E 004°16'0 0.0
2016-Sep-18 10:32N 51°21' E 004°16'0 0.0
2016-Sep-18 09:32N 51°21' E 004°16'0 0.0
2016-Sep-18 02:32N 51°21' E 004°16'0 0.0
2016-Sep-18 01:29N 51°21' E 004°16'0 0.0
2016-Sep-18 00:32N 51°21' E 004°16'0 0.0
2016-Sep-17 22:33N 51°21' E 004°16'0 0.0
2016-Sep-17 21:33N 51°21' E 004°16'0 0.0
2016-Sep-17 20:33N 51°21' E 004°16'0 0.0
2016-Sep-17 19:16N 51°21' E 004°16'0 0.0
2016-Sep-17 13:33N 51°21' E 004°16'0 0.0
2016-Sep-17 12:32N 51°21' E 004°16'0 0.0
2016-Sep-17 10:33N 51°21' E 004°16'1 1.3
2016-Sep-17 09:33N 51°21' E 004°15'1110.8
2016-Sep-17 08:34N 51°26' E 003°59'1110.5
2016-Sep-17 07:34N 51°23' E 003°43'2311.6
2016-Sep-17 05:33N 51°24' E 003°06'1111.5
2016-Sep-17 04:33N 51°35' E 003°10'14513.2
2016-Sep-16 17:33N 53°38' E 005°17'2713.8
2016-Sep-16 15:34N 53°46' E 006°01'4816.0
2016-Sep-16 12:33N 53°59' E 007°20'4314.2
2016-Sep-16 09:34N 53°58' E 008°32'2512.4
2016-Sep-16 07:34N 53°53' E 009°13'32 7.9
2016-Sep-16 03:33N 53°32' E 009°54'0 0.0
2016-Sep-16 02:33N 53°32' E 009°54'0 0.0
2016-Sep-16 00:33N 53°32' E 009°54'0 0.0
2016-Sep-15 22:33N 53°32' E 009°54'0 0.0
2016-Sep-15 21:33N 53°32' E 009°54'0 0.0
2016-Sep-15 20:33N 53°32' E 009°54'0 0.0
2016-Sep-15 18:33N 53°32' E 009°54'0 0.0
2016-Sep-15 12:33N 53°32' E 009°54'0 0.0
2016-Sep-15 11:30N 53°32' E 009°54'0 0.0
2016-Sep-15 04:33N 53°32' E 009°54'0 0.0
2016-Sep-15 03:33N 53°32' E 009°54'0 0.0
2016-Sep-15 01:33N 53°32' E 009°54'  

Dump ship's entire track history